• Join FlightAware (Why Join?)
  • Login
  • US Flag 
Gobble Gobble! 
07:45PM EST


 

Airport Tracker/Info


-or-


 

Live Flight TrackerFlight Track Log ✈ UPS2134 ✈ 25-Jul-2013 ✈ KSDF - KSYR

Flight Track Log - Related Links

Times and Time Zones

All times are in EDT time to prevent confusion due to time zone crossing. See the UPS2134 flight status page for this flight to view local times or setup timezone preferences in your user account.

Time Position Orientation Groundspeed Altitude Reporting Facility
EDT Latitude Longitude Course Direction KTS MPH feet Rate Location/Type
05:21PM 38.1670 -85.7400 165° South 16 18  Level FlightAware
05:24PM 38.1810 -85.7470 339° North 161 185 900 600 Climbing FlightAware
05:24PM 38.2050 -85.7560 344° North 186 214 2,000 1,860 Climbing FlightAware
05:25PM 38.2270 -85.7690 335° Northwest 216 249 2,700 2,220 Climbing FlightAware
05:25PM 38.2510 -85.7890 327° Northwest 226 260 4,000 2,100 Climbing FlightAware
05:26PM 38.2760 -85.8070 331° Northwest 260 299 4,600 2,100 Climbing FlightAware
05:26PM 38.3120 -85.8220 342° North 267 307 6,000 2,580 Climbing FlightAware
05:27PM 38.3460 -85.8350 343° North 280 322 7,100 2,580 Climbing FlightAware
05:27PM 38.3710 -85.8450 343° North 280 322 8,100 2,640 Climbing FlightAware
05:27PM 38.3950 -85.8420 North 279 321 9,100 1,440 Climbing FlightAware
05:28PM 38.4340 -85.8190 25° Northeast 281 323 9,500 1,620 Climbing FlightAware
05:29PM 38.4920 -85.7580 39° Northeast 342 394 11,200 2,340 Climbing FlightAware
05:29PM 38.5440 -85.7100 36° Northeast 347 399 12,800 2,160 Climbing FlightAware
05:30PM 38.6000 -85.6590 35° Northeast 359 413 14,200 1,920 Climbing FlightAware
05:31PM 38.6540 -85.6080 36° Northeast 367 422 15,500 1,860 Climbing FlightAware
05:31PM 38.7170 -85.5490 36° Northeast 375 432 16,900 1,860 Climbing FlightAware
05:32PM 38.7740 -85.4960 36° Northeast 380 437 18,200 1,800 Climbing FlightAware
05:33PM 38.8370 -85.4370 36° Northeast 385 443 19,500 1,680 Climbing FlightAware
05:33PM 38.8860 -85.3900 37° Northeast 391 450 20,500 660 Climbing FlightAware
05:34PM 38.9470 -85.3340 36° Northeast 391 450 20,500 1,620 Level FlightAware
05:35PM 39.0200 -85.2650 36° Northeast 401 461 22,900 1,860 Climbing FlightAware
05:36PM 39.0750 -85.2140 36° Northeast 401 461 23,100 120 Climbing FlightAware
05:36PM 39.1180 -85.1730 36° Northeast 401 461 23,100 1,500 Level FlightAware
05:37PM 39.2020 -85.0930 36° Northeast 414 476 25,000 1,320 Climbing FlightAware
05:38PM 39.2670 -85.0310 36° Northeast 412 474 25,000  Level FlightAware
05:38PM 39.3210 -84.9790 37° Northeast 414 476 25,000 660 Level FlightAware
05:39PM 39.3780 -84.9240 37° Northeast 415 478 25,800 840 Climbing FlightAware
05:40PM 39.4410 -84.8650 36° Northeast 416 479 26,200 1,500 Climbing FlightAware
05:40PM 39.5060 -84.8020 37° Northeast 413 475 27,900 1,800 Climbing FlightAware
05:41PM 39.5790 -84.7310 37° Northeast 417 480 28,800 1,320 Climbing FlightAware
05:42PM 39.6500 -84.6620 37° Northeast 411 473 30,000 1,140 Climbing FlightAware
05:42PM 39.7070 -84.6070 37° Northeast 419 482 30,400 600 Climbing FlightAware
05:43PM 39.7700 -84.5460 37° Northeast 428 493 30,800 900 Climbing FlightAware
05:44PM 39.8330 -84.4850 37° Northeast 426 490 31,600 1,200 Climbing FlightAware
05:44PM 39.8990 -84.4200 37° Northeast 421 484 32,500 960 Climbing FlightAware
05:45PM 39.9690 -84.3530 36° Northeast 418 481 33,000 360 Climbing FlightAware
05:46PM 40.0250 -84.2980 37° Northeast 415 478 33,000  Level FlightAware
05:47PM 40.0990 -84.2260 37° Northeast 420 483 33,000 300 Level FlightAware
05:47PM 40.1640 -84.1620 37° Northeast 416 479 33,500 1,020 Climbing FlightAware
05:48PM 40.2290 -84.0980 37° Northeast 409 471 34,500 1,140 Climbing FlightAware
05:49PM 40.2870 -84.0380 38° Northeast 414 476 35,100 360 Climbing FlightAware
05:49PM 40.3380 -83.9590 50° Northeast 418 481 35,000 -120 Descending FlightAware
05:50PM 40.3920 -83.8700 51° Northeast 426 490 35,000 360 Level FlightAware
05:51PM 40.4460 -83.7800 52° Northeast 426 490 35,600 900 Climbing FlightAware
05:51PM 40.4960 -83.6930 53° Northeast 422 486 36,300 900 Climbing FlightAware
05:52PM 40.5430 -83.6130 52° Northeast 420 483 36,900 480 Climbing FlightAware
05:53PM 40.5910 -83.5310 52° Northeast 418 481 37,000 60 Climbing FlightAware
05:54PM 40.6450 -83.4360 53° Northeast 417 480 37,000  Level FlightAware
05:54PM 40.6920 -83.3540 53° Northeast 423 487 37,000  Level FlightAware
05:55PM 40.7390 -83.2710 53° Northeast 425 489 37,000  Level FlightAware
05:55PM 40.7820 -83.1950 53° Northeast 428 493 37,000  Level FlightAware
05:56PM 40.8320 -83.1060 53° Northeast 431 496 37,000  Level FlightAware
05:57PM 40.8780 -83.0240 53° Northeast 433 498 37,000  Level FlightAware
05:57PM 40.9240 -82.9420 53° Northeast 435 501 37,000  Level FlightAware
05:58PM 40.9780 -82.8450 54° Northeast 436 502 37,000  Level FlightAware
05:59PM 41.0220 -82.7610 55° Northeast 442 509 37,000  Level FlightAware
06:00PM 41.0610 -82.6560 64° Northeast 449 517 37,000  Level FlightAware
06:00PM 41.0960 -82.5530 66° East 450 518 37,000  Level FlightAware
06:01PM 41.1310 -82.4490 66° East 450 518 37,000  Level FlightAware
06:02PM 41.1690 -82.3390 65° Northeast 450 518 37,000  Level FlightAware
06:02PM 41.1950 -82.2600 66° East 449 517 37,000  Level FlightAware
06:03PM 41.2350 -82.1420 66° East 449 517 37,000  Level FlightAware
06:04PM 41.2710 -82.0320 66° East 449 517 37,000  Level FlightAware
06:04PM 41.2990 -81.9480 66° East 448 516 37,000  Level FlightAware
06:05PM 41.3370 -81.8360 66° East 448 516 37,000  Level FlightAware
06:06PM 41.3730 -81.7260 66° East 446 513 37,000  Level FlightAware
06:06PM 41.4050 -81.6290 66° East 445 512 37,000  Level FlightAware
06:07PM 41.4400 -81.5240 66° East 443 510 37,000  Level FlightAware
06:08PM 41.4740 -81.4180 67° East 441 507 37,000  Level FlightAware
06:08PM 41.5090 -81.3090 67° East 439 505 37,000  Level FlightAware
06:09PM 41.5360 -81.2270 66° East 437 503 37,000  Level FlightAware
06:10PM 41.5710 -81.1180 67° East 436 502 37,000  Level FlightAware
06:10PM 41.6070 -81.0080 66° East 434 499 37,000  Level FlightAware
06:11PM 41.6320 -80.9290 67° East 433 498 37,000  Level FlightAware
06:12PM 41.6690 -80.8140 67° East 434 499 37,000  Level FlightAware
06:12PM 41.6990 -80.7170 67° East 434 499 37,000  Level FlightAware
06:13PM 41.7320 -80.6120 67° East 433 498 37,000  Level FlightAware
06:14PM 41.7640 -80.5110 67° East 435 501 37,000  Level FlightAware
06:15PM 41.7980 -80.4010 67° East 436 502 37,000  Level FlightAware
06:15PM 41.8270 -80.3090 67° East 437 503 37,000  Level FlightAware
06:16PM 41.8600 -80.2020 67° East 437 503 37,000  Level FlightAware
06:16PM 41.8900 -80.1050 67° East 436 502 37,000 -660 Level FlightAware
06:17PM 41.9200 -80.0080 67° East 438 504 36,200 -1,320 Descending FlightAware
06:18PM 41.9510 -79.9050 68° East 439 505 35,300 -1,200 Descending FlightAware
06:18PM 41.9840 -79.7980 67° East 439 505 34,600 -960 Descending FlightAware
06:19PM 42.0130 -79.7020 68° East 440 506 34,100 -780 Descending FlightAware
06:20PM 42.0440 -79.6020 67° East 458 527 33,600 -840 Descending FlightAware
06:21PM 42.0790 -79.4850 68° East 459 528 33,000 -420 Descending FlightAware
06:21PM 42.1160 -79.3640 68° East 461 531 33,000  Level FlightAware
06:22PM 42.1530 -79.2400 68° East 461 531 33,000  Level FlightAware
06:23PM 42.1860 -79.1330 67° East 461 531 33,000  Level FlightAware
06:23PM 42.2160 -79.0420 66° East 462 532 33,000  Level FlightAware
06:24PM 42.2530 -78.9340 65° Northeast 462 532 33,000  Level FlightAware
06:25PM 42.2940 -78.8170 65° Northeast 462 532 33,000  Level FlightAware
06:25PM 42.3230 -78.7330 65° Northeast 463 533 33,000  Level FlightAware
06:26PM 42.3630 -78.6160 65° Northeast 464 534 33,000  Level FlightAware
06:27PM 42.4010 -78.5050 65° Northeast 466 536 33,000  Level FlightAware
06:27PM 42.4360 -78.4020 65° Northeast 468 539 33,000 -1,140 Level FlightAware
06:28PM 42.4780 -78.2820 65° Northeast 461 531 31,500 -1,380 Descending FlightAware
06:29PM 42.5130 -78.1760 66° East 463 533 31,100 -720 Descending FlightAware
06:29PM 42.5530 -78.0600 65° Northeast 459 528 30,500 -720 Descending FlightAware
06:30PM 42.5870 -77.9580 66° East 451 519 30,100 -780 Descending FlightAware
06:31PM 42.6230 -77.8510 65° Northeast 449 517 29,500 -1,860 Descending FlightAware
06:32PM 42.6630 -77.7320 65° Northeast 453 521 27,500 -2,460 Descending FlightAware
06:32PM 42.6980 -77.6270 66° East 441 507 26,000 -2,400 Descending FlightAware
06:33PM 42.7330 -77.5210 66° East 434 499 24,300 -2,400 Descending FlightAware
06:34PM 42.7690 -77.4130 66° East 423 487 22,600 -2,340 Descending FlightAware
06:34PM 42.8010 -77.3170 66° East 414 476 21,100 -2,220 Descending FlightAware
06:35PM 42.8350 -77.2120 66° East 402 463 19,500 -2,160 Descending FlightAware
06:36PM 42.8660 -77.1200 65° Northeast 393 452 18,100 -2,160 Descending FlightAware
06:36PM 42.8930 -77.0300 68° East 385 443 16,600 -2,160 Descending FlightAware
06:37PM 42.9210 -76.9480 65° Northeast 380 437 15,300 -2,280 Descending FlightAware
06:38PM 42.9530 -76.8500 66° East 375 432 13,600 -2,220 Descending FlightAware
06:38PM 42.9800 -76.7670 66° East 367 422 12,300 -2,160 Descending FlightAware
06:39PM 43.0010 -76.6910 69° East 346 398 11,000 -1,380 Descending FlightAware
06:40PM 43.0030 -76.6060 88° East 290 334 10,500 -1,380 Descending FlightAware
06:40PM 43.0040 -76.5540 88° East 284 327 9,400 -2,040 Descending FlightAware
06:41PM 43.0040 -76.5130 90° East 280 322 8,800 -1,800 Descending FlightAware
06:41PM 43.0040 -76.4320 90° East 273 314 7,400 -1,740 Descending FlightAware
06:42PM 43.0050 -76.3810 88° East 269 310 6,600 -1,620 Descending FlightAware
06:42PM 43.0050 -76.3360 90° East 267 307 5,900 -780 Descending FlightAware
06:43PM 43.0070 -76.2870 87° East 243 280 5,900  Level FlightAware
06:43PM 43.0070 -76.2490 90° East 231 266 5,900  Level FlightAware
06:44PM 43.0080 -76.2090 88° East 232 267 5,900 -420 Level FlightAware
06:44PM 43.0090 -76.1780 87° East 227 261 5,600 -1,440 Descending FlightAware
06:45PM 43.0100 -76.1360 88° East 229 264 4,700 -1,800 Descending FlightAware
06:45PM 43.0110 -76.1190 85° East 228 262 4,400 -1,380 Descending FlightAware
06:45PM 43.0170 -76.0800 78° East 215 247 3,800 -1,380 Descending FlightAware
06:45PM 43.0240 -76.0620 62° Northeast 204 235 3,400 -1,380 Descending FlightAware
06:46PM 43.0410 -76.0420 41° Northeast 195 224 2,900 -1,080 Descending FlightAware
06:46PM 43.0590 -76.0280 30° Northeast 195 224 2,600 -600 Descending FlightAware
06:47PM 43.0820 -76.0140 24° Northeast 180 207 2,400 -480 Descending FlightAware
06:47PM 43.0920 -76.0100 16° North 172 198 2,300 -1,200 Descending FlightAware
06:47PM 43.1120 -76.0210 338° Northwest 163 188 1,600 -1,440 Descending FlightAware
06:48PM 43.1130 -76.0280 281° West 163 188 1,400 -1,140 Descending FlightAware
06:48PM 43.1100 -76.0630 263° West 133 153 800 -960 Descending FlightAware
06:49PM 43.1090 -76.0860 267° West 128 147 400 -480 Descending FlightAware
06:49PM 43.1090 -76.1040 270° West 128 147 400  Level FlightAware